Time;durP1;ratioP1;P1;durP2;ratioP2;P2;SDS_P1;SDS_P2;PMS_P1;PMS_P2;Temp;Humidity;BMP_temperature;BMP_pressure;BME280_temperature;BME280_humidity;BME280_pressure;Samples;Min_cycle;Max_cycle;Signal;HPM_P1;HPM_P2
2023/02/23 00:00:47;;;;;;;63.97;45.00;;;;;;;;;;5055315;28;20206;-78
2023/02/23 00:03:13;;;;;;;62.55;44.38;;;;;;;;;;5037657;28;20211;-78
2023/02/23 00:05:39;;;;;;;63.90;47.10;;;;;;;;;;5054839;28;20249;-79
2023/02/23 00:08:06;;;;;;;57.03;41.67;;;;;;;;;;5054219;28;20205;-78
2023/02/23 00:10:32;;;;;;;61.33;43.63;;;;;;;;;;5053700;28;20416;-79
2023/02/23 00:12:59;;;;;;;57.22;43.17;;;;;;;;;;5054609;28;20287;-78
2023/02/23 00:15:28;;;;;;;65.50;43.55;;;;;;;;;;5053559;28;20182;-78
2023/02/23 00:17:55;;;;;;;60.72;43.05;;;;;;;;;;5054927;28;20240;-78
2023/02/23 00:20:26;;;;;;;59.88;45.05;;;;;;;;;;5055182;28;20198;-78
2023/02/23 00:22:54;;;;;;;57.53;41.95;;;;;;;;;;5054545;28;20587;-78
2023/02/23 00:25:20;;;;;;;59.47;41.60;;;;;;;;;;5055265;28;20586;-78
2023/02/23 00:27:46;;;;;;;58.30;43.20;;;;;;;;;;5054989;28;20207;-78
2023/02/23 00:30:12;;;;;;;64.90;43.70;;;;;;;;;;5054231;28;20426;-78
2023/02/23 00:32:38;;;;;;;60.00;41.55;;;;;;;;;;5055084;28;20407;-78
2023/02/23 00:35:10;;;;;;;64.53;45.72;;;;;;;;;;5055266;28;20197;-78
2023/02/23 00:37:36;;;;;;;59.25;41.97;;;;;;;;;;5055147;28;20204;-78
2023/02/23 00:40:06;;;;;;;57.55;42.78;;;;;;;;;;5053906;28;20208;-78
2023/02/23 00:42:32;;;;;;;58.40;44.22;;;;;;;;;;5054800;28;20161;-81
2023/02/23 00:45:06;;;;;;;63.63;44.77;;;;;;;;;;5054634;28;20692;-78
2023/02/23 00:47:32;;;;;;;59.78;42.92;;;;;;;;;;5055471;28;20411;-78
2023/02/23 00:49:58;;;;;;;67.37;45.10;;;;;;;;;;5054505;28;20279;-78
2023/02/23 00:52:24;;;;;;;59.97;43.80;;;;;;;;;;5054662;28;20431;-78
2023/02/23 00:54:50;;;;;;;57.03;43.10;;;;;;;;;;5054309;28;20396;-78
2023/02/23 00:57:16;;;;;;;63.45;43.03;;;;;;;;;;5054804;28;20566;-78
2023/02/23 00:59:42;;;;;;;57.40;43.57;;;;;;;;;;5054300;28;20322;-78
2023/02/23 01:02:08;;;;;;;53.53;41.97;;;;;;;;;;5054288;28;20400;-78
2023/02/23 01:04:34;;;;;;;59.57;41.40;;;;;;;;;;5054651;28;20451;-80
2023/02/23 01:07:02;;;;;;;60.97;47.10;;;;;;;;;;5054915;28;20457;-78
2023/02/23 01:09:28;;;;;;;65.80;46.35;;;;;;;;;;5053024;28;20426;-78
2023/02/23 01:11:56;;;;;;;61.60;46.60;;;;;;;;;;5054283;28;20174;-78
2023/02/23 01:14:22;;;;;;;62.90;44.88;;;;;;;;;;5053694;28;20505;-79
2023/02/23 01:16:48;;;;;;;65.18;46.47;;;;;;;;;;5057825;28;20235;-79
2023/02/23 01:19:15;;;;;;;71.35;47.65;;;;;;;;;;5056630;28;20228;-79
2023/02/23 01:21:42;;;;;;;69.53;47.03;;;;;;;;;;5039708;28;20181;-79
2023/02/23 01:24:08;;;;;;;65.88;50.10;;;;;;;;;;5056927;28;20470;-79
2023/02/23 01:26:35;;;;;;;73.60;50.33;;;;;;;;;;5058571;28;20173;-79
2023/02/23 01:29:02;;;;;;;63.42;47.92;;;;;;;;;;5057843;28;20172;-79
2023/02/23 01:31:29;;;;;;;65.93;46.17;;;;;;;;;;5057875;28;20177;-79
2023/02/23 01:33:56;;;;;;;69.38;47.67;;;;;;;;;;5057882;28;20177;-79
2023/02/23 01:36:24;;;;;;;74.47;46.28;;;;;;;;;;5057991;28;20674;-79
2023/02/23 01:38:50;;;;;;;65.82;45.92;;;;;;;;;;5056901;28;20204;-80
2023/02/23 01:41:16;;;;;;;79.60;50.05;;;;;;;;;;5056453;28;20170;-79
2023/02/23 01:43:56;;;;;;;83.15;48.55;;;;;;;;;;5056448;28;20618;-79
2023/02/23 01:46:22;;;;;;;69.10;46.65;;;;;;;;;;5058129;28;20177;-79
2023/02/23 01:48:48;;;;;;;72.40;49.65;;;;;;;;;;5056259;28;20228;-79
2023/02/23 01:51:16;;;;;;;67.85;47.00;;;;;;;;;;5057857;28;20640;-79
2023/02/23 01:53:44;;;;;;;73.07;51.22;;;;;;;;;;5057545;28;20235;-79
2023/02/23 01:56:18;;;;;;;75.18;51.97;;;;;;;;;;5057784;28;20166;-79
2023/02/23 01:58:46;;;;;;;78.80;51.85;;;;;;;;;;5056160;28;20216;-79
2023/02/23 02:01:12;;;;;;;71.00;47.33;;;;;;;;;;5056407;28;20626;-79
2023/02/23 02:03:40;;;;;;;79.85;49.33;;;;;;;;;;5057328;28;20188;-79
2023/02/23 02:06:10;;;;;;;76.75;50.10;;;;;;;;;;5057543;28;20175;-79
2023/02/23 02:08:44;;;;;;;75.85;50.25;;;;;;;;;;5056176;28;20186;-79
2023/02/23 02:14:01;;;;;;;72.97;48.30;;;;;;;;;;5057238;28;20248;-79
2023/02/23 02:16:41;;;;;;;83.30;47.67;;;;;;;;;;5056020;28;20277;-79
2023/02/23 02:19:07;;;;;;;80.55;47.30;;;;;;;;;;5057876;28;20207;-79
2023/02/23 02:21:34;;;;;;;88.78;49.90;;;;;;;;;;5057096;28;20652;-79
2023/02/23 02:24:07;;;;;;;71.93;48.63;;;;;;;;;;5055779;28;20173;-79
2023/02/23 02:26:33;;;;;;;79.90;51.85;;;;;;;;;;5056854;28;20564;-79
2023/02/23 02:29:21;;;;;;;75.00;49.37;;;;;;;;;;5056760;28;20256;-79
2023/02/23 02:32:09;;;;;;;80.45;47.70;;;;;;;;;;5056829;28;20785;-79
2023/02/23 02:34:35;;;;;;;77.57;48.92;;;;;;;;;;5057479;28;20173;-78
2023/02/23 02:37:07;;;;;;;85.50;54.35;;;;;;;;;;5055522;28;20208;-79
2023/02/23 02:39:37;;;;;;;90.90;56.33;;;;;;;;;;5057382;28;20170;-78
2023/02/23 02:42:03;;;;;;;81.88;55.45;;;;;;;;;;5056729;28;20168;-79
2023/02/23 02:44:32;;;;;;;86.15;54.15;;;;;;;;;;5057385;28;20178;-79
2023/02/23 02:47:01;;;;;;;90.32;56.95;;;;;;;;;;5056679;28;20181;-78
2023/02/23 02:49:46;;;;;;;90.47;52.42;;;;;;;;;;5055632;28;20638;-79
2023/02/23 02:52:12;;;;;;;95.95;54.83;;;;;;;;;;5057643;28;20185;-79
2023/02/23 02:54:40;;;;;;;97.90;54.30;;;;;;;;;;5059450;28;20165;-79
2023/02/23 02:57:07;;;;;;;94.85;53.95;;;;;;;;;;5057830;28;20450;-79
2023/02/23 04:18:29;;;;;;;119.47;69.27;;;;;;;;;;5055308;28;20209;-79
2023/02/23 04:20:56;;;;;;;110.32;64.57;;;;;;;;;;5055344;28;20423;-79
2023/02/23 04:23:22;;;;;;;116.40;67.70;;;;;;;;;;5054497;28;20240;-79
2023/02/23 04:25:48;;;;;;;119.50;66.65;;;;;;;;;;5055493;28;20215;-80
2023/02/23 04:28:14;;;;;;;126.22;69.72;;;;;;;;;;5055123;28;20181;-80
2023/02/23 04:30:41;;;;;;;119.22;69.03;;;;;;;;;;5055391;28;20169;-80
2023/02/23 04:33:07;;;;;;;124.97;72.80;;;;;;;;;;5055015;28;20170;-79
2023/02/23 04:35:33;;;;;;;131.45;74.80;;;;;;;;;;5055510;28;20185;-79
2023/02/23 04:37:59;;;;;;;153.90;76.53;;;;;;;;;;5055656;28;20197;-79
2023/02/23 04:40:26;;;;;;;148.95;75.03;;;;;;;;;;5055505;28;20186;-80
2023/02/23 04:42:52;;;;;;;149.82;71.70;;;;;;;;;;5054009;28;20283;-80
2023/02/23 04:45:18;;;;;;;146.25;75.28;;;;;;;;;;5054549;28;20177;-80
2023/02/23 04:47:44;;;;;;;139.73;74.88;;;;;;;;;;5053653;28;20192;-79
2023/02/23 04:50:10;;;;;;;151.95;73.80;;;;;;;;;;5057579;28;20174;-79
2023/02/23 04:52:37;;;;;;;149.95;76.22;;;;;;;;;;5057854;28;20174;-79
2023/02/23 04:55:04;;;;;;;140.73;71.97;;;;;;;;;;5057420;28;20208;-80
2023/02/23 04:57:30;;;;;;;138.90;71.20;;;;;;;;;;5059305;28;20200;-80
2023/02/23 04:59:56;;;;;;;141.97;69.70;;;;;;;;;;5057192;28;20193;-80
2023/02/23 05:02:23;;;;;;;145.43;73.28;;;;;;;;;;5058021;28;20396;-80
2023/02/23 05:04:49;;;;;;;148.55;69.90;;;;;;;;;;5058556;28;20192;-80
2023/02/23 05:07:15;;;;;;;129.00;67.27;;;;;;;;;;5057565;28;20622;-79
2023/02/23 05:09:40;;;;;;;137.25;69.70;;;8.20;99.90;;;;;;5058504;28;20400;-79
2023/02/23 05:12:06;;;;;;;145.17;70.20;;;;;;;;;;5057356;28;20181;-79
2023/02/23 05:14:32;;;;;;;145.98;74.60;;;;;;;;;;5057316;28;20225;-79
2023/02/23 05:16:58;;;;;;;135.70;71.00;;;;;;;;;;5057836;28;20181;-80
2023/02/23 05:19:24;;;;;;;131.57;71.43;;;8.40;99.90;;;;;;5058443;28;20406;-80
2023/02/23 05:21:50;;;;;;;145.13;67.93;;;8.40;99.90;;;;;;5058224;28;20264;-81
2023/02/23 05:24:17;;;;;;;140.40;73.20;;;8.40;99.90;;;;;;5057612;28;20645;-79
2023/02/23 05:26:43;;;;;;;146.20;71.35;;;;;;;;;;5057901;28;20193;-79
2023/02/23 05:29:09;;;;;;;151.43;73.78;;;;;;;;;;5040159;28;20203;-79
2023/02/23 05:31:35;;;;;;;139.80;68.60;;;;;;;;;;5057224;28;20645;-80
2023/02/23 05:34:01;;;;;;;144.60;72.88;;;;;;;;;;5057549;28;20412;-80
2023/02/23 05:36:28;;;;;;;165.50;75.70;;;;;;;;;;5057770;28;20204;-79
2023/02/23 05:38:54;;;;;;;159.88;77.75;;;;;;;;;;5057817;28;20228;-79
2023/02/23 05:41:21;;;;;;;151.65;72.93;;;;;;;;;;5056864;28;20192;-79
2023/02/23 05:43:49;;;;;;;156.68;71.28;;;;;;;;;;5058402;28;20178;-80
2023/02/23 05:46:17;;;;;;;166.93;74.47;;;;;;;;;;5057782;28;20610;-79
2023/02/23 05:48:43;;;;;;;163.50;71.63;;;;;;;;;;5057832;28;20189;-80
2023/02/23 05:51:10;;;;;;;147.63;68.17;;;;;;;;;;5056669;28;20187;-79
2023/02/23 05:53:36;;;;;;;145.15;69.00;;;;;;;;;;5057136;28;20443;-80
2023/02/23 05:56:07;;;;;;;146.63;67.27;;;;;;;;;;5057446;28;20661;-79
2023/02/23 05:58:33;;;;;;;151.23;67.78;;;;;;;;;;5058021;28;20451;-79
2023/02/23 06:00:59;;;;;;;149.98;67.15;;;;;;;;;;5057326;28;20203;-79
2023/02/23 06:03:25;;;;;;;155.30;68.82;;;;;;;;;;5056725;28;20261;-79
2023/02/23 06:05:52;;;;;;;144.15;67.25;;;;;;;;;;5056529;28;20181;-79
2023/02/23 06:08:18;;;;;;;130.13;65.13;;;;;;;;;;5056555;28;20742;-80
2023/02/23 06:10:44;;;;;;;145.93;65.80;;;;;;;;;;5057341;28;20177;-80
2023/02/23 06:13:10;;;;;;;149.87;66.07;;;;;;;;;;5055812;28;20172;-80
2023/02/23 06:15:36;;;;;;;140.45;66.15;;;;;;;;;;5057301;28;20404;-80
2023/02/23 06:18:02;;;;;;;146.13;65.20;;;;;;;;;;5056870;28;20247;-80
2023/02/23 06:20:28;;;;;;;139.95;66.80;;;;;;;;;;5057871;28;20412;-80
2023/02/23 06:22:55;;;;;;;163.02;69.18;;;;;;;;;;5057237;28;20170;-80
2023/02/23 06:25:21;;;;;;;141.52;66.43;;;;;;;;;;5057518;28;20551;-80
2023/02/23 06:27:47;;;;;;;143.68;65.25;;;;;;;;;;5057361;28;20641;-79
2023/02/23 06:30:13;;;;;;;153.50;66.30;;;;;;;;;;5055416;28;20218;-79
2023/02/23 06:32:39;;;;;;;154.40;67.38;;;;;;;;;;5056845;28;20415;-80
2023/02/23 06:35:06;;;;;;;152.80;67.63;;;;;;;;;;5055544;28;20189;-80
2023/02/23 06:37:32;;;;;;;143.10;64.75;;;;;;;;;;5055487;28;20209;-80
2023/02/23 06:39:58;;;;;;;158.85;70.03;;;;;;;;;;5057297;28;20189;-79
2023/02/23 06:42:24;;;;;;;134.68;62.65;;;;;;;;;;5056213;28;20192;-79
2023/02/23 06:44:50;;;;;;;146.25;61.45;;;;;;;;;;5055948;28;20185;-79
2023/02/23 06:47:16;;;;;;;147.67;63.20;;;;;;;;;;5056912;28;20196;-79
2023/02/23 06:49:42;;;;;;;146.57;62.70;;;;;;;;;;5057065;28;20404;-79
2023/02/23 06:52:09;;;;;;;134.00;62.33;;;;;;;;;;5056564;28;20757;-79
2023/02/23 06:54:36;;;;;;;157.13;64.35;;;;;;;;;;5056461;28;20492;-79
2023/02/23 06:57:03;;;;;;;141.45;61.35;;;;;;;;;;5057158;28;20206;-79
2023/02/23 06:59:29;;;;;;;138.00;61.80;;;;;;;;;;5057443;28;20182;-79
2023/02/23 07:01:55;;;;;;;124.97;59.30;;;;;;;;;;5057043;28;20172;-81
2023/02/23 07:04:21;;;;;;;154.40;58.92;;;;;;;;;;5056941;28;20186;-79
2023/02/23 07:06:47;;;;;;;126.60;58.45;;;;;;;;;;5056195;28;20179;-79
2023/02/23 07:09:14;;;;;;;141.60;62.63;;;;;;;;;;5056504;28;20260;-80
2023/02/23 07:11:40;;;;;;;147.55;60.83;;;;;;;;;;5056177;28;20440;-80
2023/02/23 07:14:06;;;;;;;134.02;58.58;;;;;;;;;;5054125;28;20237;-79
2023/02/23 07:16:32;;;;;;;133.75;61.10;;;;;;;;;;5056689;28;20178;-79
2023/02/23 07:18:58;;;;;;;138.67;60.60;;;;;;;;;;5055796;28;20547;-79
2023/02/23 07:21:24;;;;;;;132.17;59.57;;;;;;;;;;5056275;28;20412;-79
2023/02/23 07:23:53;;;;;;;132.67;56.17;;;;;;;;;;5056371;28;20409;-78
2023/02/23 07:26:19;;;;;;;125.13;57.58;;;;;;;;;;5055921;28;20411;-79
2023/02/23 07:28:45;;;;;;;120.70;55.30;;;;;;;;;;5055230;28;20211;-79
2023/02/23 07:31:11;;;;;;;120.40;55.75;;;;;;;;;;5038030;28;20416;-79
2023/02/23 07:33:37;;;;;;;118.60;55.60;;;;;;;;;;5055128;28;20184;-79
2023/02/23 07:36:03;;;;;;;129.47;58.10;;;;;;;;;;5055017;28;20424;-79
2023/02/23 07:38:29;;;;;;;109.90;55.47;;;;;;;;;;5055952;28;20463;-79
2023/02/23 07:40:57;;;;;;;113.10;56.83;;;;;;;;;;5056155;28;20203;-79
2023/02/23 07:43:23;;;;;;;123.05;56.83;;;;;;;;;;5054949;28;20450;-79
2023/02/23 07:45:50;;;;;;;113.70;58.17;;;;;;;;;;5056317;28;20211;-79
2023/02/23 07:48:16;;;;;;;127.80;61.17;;;;;;;;;;5055873;28;20408;-79
2023/02/23 07:50:42;;;;;;;128.20;58.55;;;;;;;;;;5055660;28;20205;-79
2023/02/23 07:53:09;;;;;;;119.38;59.28;;;;;;;;;;5037487;28;20617;-79
2023/02/23 07:55:37;;;;;;;128.40;55.72;;;;;;;;;;5054751;28;20180;-79
2023/02/23 07:58:04;;;;;;;128.63;60.00;;;;;;;;;;5055289;28;20196;-79
2023/02/23 08:00:30;;;;;;;126.63;58.05;;;;;;;;;;5055677;28;20173;-79
2023/02/23 08:02:56;;;;;;;126.10;56.93;;;;;;;;;;5055203;28;20184;-79
2023/02/23 08:05:22;;;;;;;122.00;59.67;;;;;;;;;;5055188;28;20448;-79
2023/02/23 08:07:48;;;;;;;125.32;60.80;;;;;;;;;;5055105;28;20408;-79
2023/02/23 08:10:14;;;;;;;107.27;53.13;;;;;;;;;;5054308;28;20210;-79
2023/02/23 08:12:40;;;;;;;121.10;59.23;;;;;;;;;;5055109;28;20800;-79
2023/02/23 08:15:07;;;;;;;125.43;56.87;;;;;;;;;;5055447;28;20494;-79
2023/02/23 08:17:33;;;;;;;118.05;56.83;;;;;;;;;;5055455;28;20489;-79
2023/02/23 08:19:59;;;;;;;118.78;58.40;;;;;;;;;;5055505;28;20238;-78
2023/02/23 08:22:25;;;;;;;115.25;57.10;;;;;;;;;;5054709;28;20646;-79
2023/02/23 08:24:51;;;;;;;99.70;50.97;;;;;;;;;;5056517;28;20177;-79
2023/02/23 08:27:17;;;;;;;98.50;50.50;;;;;;;;;;5058724;28;20268;-79
2023/02/23 08:29:43;;;;;;;105.85;51.13;;;;;;;;;;5059322;28;20174;-79
2023/02/23 08:32:09;;;;;;;107.87;51.07;;;;;;;;;;5040486;28;20189;-78
2023/02/23 08:34:42;;;;;;;116.82;56.42;;;;;;;;;;5060101;28;20400;-79
2023/02/23 08:37:09;;;;;;;122.57;57.40;;;;;;;;;;5059581;28;20178;-78
2023/02/23 08:39:35;;;;;;;118.97;56.97;;;;;;;;;;5059553;28;20177;-79
2023/02/23 08:42:01;;;;;;;109.83;56.00;;;;;;;;;;5059697;28;20219;-81
2023/02/23 08:44:27;;;;;;;107.53;54.07;;;;;;;;;;5057697;28;20455;-78
2023/02/23 08:46:54;;;;;;;103.47;55.17;;;;;;;;;;5059703;28;20892;-78
2023/02/23 08:49:20;;;;;;;103.82;57.78;;;;;;;;;;5059231;28;20173;-78
2023/02/23 08:51:46;;;;;;;103.45;55.90;;;;;;;;;;5058362;28;20185;-79
2023/02/23 08:54:14;;;;;;;98.20;55.00;;;;;;;;;;5059503;28;20188;-78
2023/02/23 08:56:43;;;;;;;89.78;51.05;;;;;;;;;;5059980;28;20411;-78
2023/02/23 08:59:10;;;;;;;104.88;55.55;;;;;;;;;;5057698;28;20569;-78
2023/02/23 09:01:37;;;;;;;98.13;54.75;;;;;;;;;;5058189;28;20363;-78
2023/02/23 09:04:03;;;;;;;92.60;50.97;;;;;;;;;;5058533;28;20170;-79
2023/02/23 09:06:29;;;;;;;95.32;53.25;;;;;;;;;;5058056;28;20209;-78
2023/02/23 09:08:56;;;;;;;88.60;51.80;;;;;;;;;;5059174;28;20187;-78
2023/02/23 09:11:22;;;;;;;86.20;48.83;;;;;;;;;;5059249;28;20239;-78
2023/02/23 09:13:48;;;;;;;94.35;51.50;;;;;;;;;;5057613;28;20593;-79
2023/02/23 09:16:15;;;;;;;89.78;52.47;;;;;;;;;;5058895;28;20169;-79
2023/02/23 09:18:41;;;;;;;91.40;51.17;;;;;;;;;;5058942;28;20209;-79
2023/02/23 09:21:10;;;;;;;97.50;54.28;;;;;;;;;;5058534;28;20181;-79
2023/02/23 09:23:37;;;;;;;96.13;49.58;;;;;;;;;;5058954;28;20626;-79
2023/02/23 09:26:04;;;;;;;97.88;52.35;;;;;;;;;;5058935;28;20170;-79
2023/02/23 09:28:30;;;;;;;90.45;52.55;;;;;;;;;;5057780;28;20181;-78
2023/02/23 09:30:56;;;;;;;86.55;50.33;;;;;;;;;;5057479;28;20541;-78
2023/02/23 09:33:22;;;;;;;85.93;49.90;;;;;;;;;;5059209;28;20202;-78
2023/02/23 09:35:48;;;;;;;85.67;50.53;;;;;;;;;;5056523;28;20181;-79
2023/02/23 09:38:14;;;;;;;91.73;48.80;;;;;;;;;;5057136;28;20460;-79
2023/02/23 09:40:48;;;;;;;89.63;47.43;;;;;;;;;;5058601;28;20412;-79
2023/02/23 09:43:31;;;;;;;99.75;49.70;;;;;;;;;;5058394;28;20423;-78
2023/02/23 09:46:15;;;;;;;99.15;47.65;;;;;;;;;;5058739;28;20200;-79
2023/02/23 09:48:42;;;;;;;103.88;49.30;;;;;;;;;;5058883;28;20235;-79
2023/02/23 09:51:08;;;;;;;87.50;46.60;;;;;;;;;;5058590;28;20184;-78
2023/02/23 09:53:39;;;;;;;92.72;49.63;;;;;;;;;;5056807;28;20177;-78
2023/02/23 09:56:09;;;;;;;93.72;50.50;;;;;;;;;;5058223;28;20170;-81
2023/02/23 09:58:35;;;;;;;89.30;46.58;;;;;;;;;;5058328;28;20679;-79
2023/02/23 10:01:20;;;;;;;77.22;46.40;;;;;;;;;;5056798;28;20276;-78
2023/02/23 10:04:07;;;;;;;77.22;43.83;;;;;;;;;;5058651;28;20260;-78
2023/02/23 10:06:33;;;;;;;72.30;42.85;;;;;;;;;;5047851;28;20268;-78
2023/02/23 10:09:05;;;;;;;70.60;41.58;;;;;;;;;;5039958;28;20189;-78
2023/02/23 10:11:31;;;;;;;70.65;44.97;;;;;;;;;;5057545;28;20644;-79
2023/02/23 10:14:15;;;;;;;69.83;43.53;;;;;;;;;;5057974;28;20225;-78
2023/02/23 10:16:44;;;;;;;72.18;38.80;;;;;;;;;;5057834;28;20764;-78
2023/02/23 10:19:11;;;;;;;69.93;41.72;;;;;;;;;;5055873;28;20210;-78
2023/02/23 10:21:42;;;;;;;62.33;40.17;;;;;;;;;;5057611;28;20183;-78
2023/02/23 10:24:08;;;;;;;74.57;43.20;;;;;;;;;;5057633;28;20205;-79
2023/02/23 10:26:42;;;;;;;72.30;42.33;;;;;;;;;;5057766;28;20648;-78
2023/02/23 10:29:34;;;;;;;72.88;42.45;;;;;;;;;;5057568;28;20411;-79
2023/02/23 10:32:03;;;;;;;67.97;41.42;;;;;;;;;;5054762;28;20623;-79
2023/02/23 10:34:30;;;;;;;63.78;39.95;;;;;;;;;;5057017;28;20166;-78
2023/02/23 10:37:00;;;;;;;65.50;41.50;;;;;;;;;;5039596;28;20535;-79
2023/02/23 10:39:27;;;;;;;62.88;39.90;;;;;;;;;;5056003;28;20184;-78
2023/02/23 10:41:53;;;;;;;79.07;40.60;;;;;;;;;;5057962;28;20209;-78
2023/02/23 10:44:21;;;;;;;67.85;39.75;;;;;;;;;;5056717;28;20196;-78
2023/02/23 10:46:51;;;;;;;76.85;43.42;;;;;;;;;;5057163;28;20601;-78
2023/02/23 10:49:21;;;;;;;63.45;40.05;;;;;;;;;;5055278;28;20185;-78
2023/02/23 10:51:47;;;;;;;79.07;43.58;;;;;;;;;;5057398;28;20486;-78
2023/02/23 10:54:32;;;;;;;74.13;41.60;;;;;;;;;;5055698;28;20623;-79
2023/02/23 10:56:58;;;;;;;69.80;39.22;;;;;;;;;;5058122;28;20629;-78
2023/02/23 10:59:24;;;;;;;73.47;40.63;;;;;;;;;;5040032;28;20185;-78
2023/02/23 11:01:50;;;;;;;67.97;40.60;;;;;;;;;;5057632;28;20173;-79
2023/02/23 11:04:16;;;;;;;67.15;38.60;;;;;;;;;;5056701;28;20443;-79
2023/02/23 11:06:43;;;;;;;63.23;35.37;;;;;;;;;;5057173;28;20170;-78
2023/02/23 11:09:26;;;;;;;67.95;40.67;;;;;;;;;;5055337;28;20483;-79
2023/02/23 11:12:02;;;;;;;57.03;35.90;;;;;;;;;;5056687;28;20184;-79
2023/02/23 11:14:29;;;;;;;72.93;38.00;;;;;;;;;;5056388;28;20296;-79
2023/02/23 11:16:56;;;;;;;62.45;35.13;;;;;;;;;;5056547;28;20181;-79
2023/02/23 11:19:25;;;;;;;67.85;36.63;;;;;;;;;;5055957;28;20181;-79
2023/02/23 11:21:51;;;;;;;64.95;37.42;;;;;;;;;;5055194;28;20249;-79
2023/02/23 11:24:30;;;;;;;64.25;33.20;;;;;;;;;;5056055;28;20629;-79
2023/02/23 11:26:59;;;;;;;76.70;35.38;;;;;;;;;;5057113;28;20259;-79
2023/02/23 11:29:32;;;;;;;69.22;34.17;;;;;;;;;;5056537;28;20532;-78
2023/02/23 11:31:59;;;;;;;61.30;33.92;;;;;;;;;;5055351;28;20182;-79
2023/02/23 11:34:32;;;;;;;67.00;33.33;;;;;;;;;;5055140;28;20630;-79
2023/02/23 11:37:00;;;;;;;68.90;34.20;;;;;;;;;;5055967;28;20617;-79
2023/02/23 11:39:26;;;;;;;73.00;34.03;;;;;;;;;;5055202;28;20173;-78
2023/02/23 11:42:13;;;;;;;77.33;32.93;;;;;;;;;;5054325;28;20280;-78
2023/02/23 11:44:39;;;;;;;77.45;35.28;;;;;;;;;;5056186;28;20416;-78
2023/02/23 11:47:06;;;;;;;63.10;33.20;;;;;;;;;;5056084;28;20181;-78
2023/02/23 11:49:35;;;;;;;78.47;37.55;;;;;;;;;;5054698;28;20459;-78
2023/02/23 11:52:02;;;;;;;66.50;33.00;;;;;;;;;;5055223;28;20521;-78
2023/02/23 11:54:32;;;;;;;63.75;32.80;;;;;;;;;;5055731;28;20179;-78
2023/02/23 11:57:01;;;;;;;71.13;33.95;;;;;;;;;;5055199;28;20204;-78
2023/02/23 11:59:38;;;;;;;76.85;34.17;;;;;;;;;;5054815;28;20646;-79
2023/02/23 12:02:18;;;;;;;63.97;32.08;;;;;;;;;;5055914;28;20561;-78
2023/02/23 12:04:46;;;;;;;72.57;32.33;;;;;;;;;;5055043;28;20169;-78
2023/02/23 12:07:23;;;;;;;72.47;35.17;;;;;;;;;;5055559;28;20193;-78
2023/02/23 12:09:54;;;;;;;61.10;30.35;;;;;;;;;;5055682;28;20180;-79
2023/02/23 12:12:21;;;;;;;59.85;27.75;;;;;;;;;;5055431;28;20591;-78
2023/02/23 12:14:56;;;;;;;62.70;29.75;;;;;;;;;;5054055;28;20685;-78
2023/02/23 12:17:27;;;;;;;62.92;33.78;;;;;;;;;;5053914;28;20200;-78
2023/02/23 12:19:53;;;;;;;44.67;22.88;;;;;;;;;;5055390;28;20177;-78
2023/02/23 12:22:24;;;;;;;50.60;24.53;;;;;;;;;;5055477;28;20747;-78
2023/02/23 12:25:01;;;;;;;49.22;25.00;;;;;;;;;;5055963;28;20453;-78
2023/02/23 12:27:30;;;;;;;46.58;24.02;;;;;;;;;;5054331;28;20208;-77
2023/02/23 12:30:08;;;;;;;54.35;25.55;;;;;;;;;;5055789;28;20193;-77
2023/02/23 12:32:35;;;;;;;51.38;27.02;;;;;;;;;;5055290;28;20541;-78
2023/02/23 12:35:04;;;;;;;51.45;27.17;;;;;;;;;;5055667;28;20180;-78
2023/02/23 12:37:42;;;;;;;60.35;27.38;;;;;;;;;;5054935;28;20199;-78
2023/02/23 12:40:11;;;;;;;57.10;28.70;;;;;;;;;;5054172;28;20208;-78
2023/02/23 12:42:41;;;;;;;65.97;31.67;;;;;;;;;;5053742;28;20272;-78
2023/02/23 12:45:13;;;;;;;62.85;29.08;;;;;;;;;;5055384;28;20184;-78
2023/02/23 12:47:42;;;;;;;57.88;30.20;;;;;;;;;;5054898;28;20260;-78
2023/02/23 12:50:17;;;;;;;65.47;30.80;;;;;;;;;;5054785;28;20680;-78
2023/02/23 12:52:46;;;;;;;61.85;30.80;;;;;;;;;;5055554;28;20247;-78
2023/02/23 12:55:13;;;;;;;70.50;31.92;;;;;;;;;;5055255;28;20177;-78
2023/02/23 12:58:05;;;;;;;58.38;30.58;;;;;;;;;;5054463;28;20259;-77
2023/02/23 13:00:38;;;;;;;78.53;34.15;;;;;;;;;;5052009;28;20550;-78
2023/02/23 13:03:16;;;;;;;65.22;32.90;;;;;;;;;;5055675;28;20169;-78
2023/02/23 13:05:55;;;;;;;68.35;32.85;;;;;;;;;;5055324;28;20166;-78
2023/02/23 13:08:31;;;;;;;76.85;34.45;;;;;;;;;;5054756;28;20629;-78
2023/02/23 13:11:03;;;;;;;63.08;30.52;;;;;;;;;;5057332;28;20621;-78
2023/02/23 13:13:33;;;;;;;68.00;32.63;;;;;;;;;;5058588;28;20683;-78
2023/02/23 13:16:05;;;;;;;64.18;32.30;;;;;;;;;;5058287;28;20183;-78
2023/02/23 13:18:40;;;;;;;61.40;29.77;;;;;;;;;;5058238;28;20286;-78
2023/02/23 13:21:19;;;;;;;64.30;29.95;;;;;;;;;;5058799;28;20188;-78
2023/02/23 13:24:00;;;;;;;55.22;28.55;;;;;;;;;;5059314;28;20165;-77
2023/02/23 13:26:35;;;;;;;55.95;27.15;;;;;;;;;;5057200;28;20180;-78
2023/02/23 13:29:17;;;;;;;53.63;28.23;;;;;;;;;;5057363;28;20173;-78
2023/02/23 13:31:43;;;;;;;57.97;26.25;;;;;;;;;;5058978;28;20252;-78
2023/02/23 13:34:11;;;;;;;52.63;23.45;;;;;;;;;;5058547;28;20181;-78
2023/02/23 13:36:39;;;;;;;52.40;26.15;;;;;;;;;;5057801;28;20180;-77
2023/02/23 13:39:24;;;;;;;49.80;25.05;;;;;;;;;;5058712;28;20566;-78
2023/02/23 13:41:57;;;;;;;50.63;28.05;;;;;;;;;;5058838;28;20652;-78
2023/02/23 13:44:36;;;;;;;57.17;26.75;;;;;;;;;;5056801;28;20185;-78
2023/02/23 13:47:02;;;;;;;35.00;20.83;;;;;;;;;;5056950;28;20174;-78
2023/02/23 13:49:41;;;;;;;40.57;20.03;;;;;;;;;;5057949;28;20178;-78
2023/02/23 13:52:16;;;;;;;36.75;21.02;;;;;;;;;;5055770;28;20423;-78
2023/02/23 13:54:51;;;;;;;33.55;19.33;;;;;;;;;;5056424;28;20589;-78
2023/02/23 13:57:18;;;;;;;31.40;18.77;;;;;;;;;;5058057;28;20204;-77
2023/02/23 13:59:45;;;;;;;35.70;19.38;;;;;;;;;;5057684;28;20531;-78
2023/02/23 14:02:31;;;;;;;29.52;18.15;;;;;;;;;;5057866;28;20231;-78
2023/02/23 14:05:01;;;;;;;27.85;18.10;;;;;;;;;;5056039;28;20181;-77
2023/02/23 14:07:29;;;;;;;31.48;17.88;;;;;;;;;;5057814;28;20200;-77
2023/02/23 14:10:00;;;;;;;28.33;17.45;;;;;;;;;;5057785;28;20192;-77
2023/02/23 14:12:32;;;;;;;29.67;18.15;;;;;;;;;;5056246;28;20189;-78
2023/02/23 14:15:18;;;;;;;28.70;18.00;;;;;;;;;;5058204;28;20562;-77
2023/02/23 14:17:54;;;;;;;31.50;17.02;;;;;;;;;;5057438;28;20569;-77
2023/02/23 14:20:43;;;;;;;26.65;16.88;;;;;;;;;;5057706;28;20479;-77
2023/02/23 14:23:12;;;;;;;33.13;18.40;;;;;;;;;;5056834;28;20173;-77
2023/02/23 14:25:39;;;;;;;30.80;16.55;;;;;;;;;;5057324;28;20180;-77
2023/02/23 14:28:24;;;;;;;29.85;16.08;;;;;;;;;;5056114;28;20188;-77
2023/02/23 14:31:01;;;;;;;31.05;17.90;;;;;;;;;;5057372;28;20200;-77
2023/02/23 14:33:35;;;;;;;31.30;17.02;;;;;;;;;;5056238;28;20234;-77
2023/02/23 14:36:02;;;;;;;30.05;16.70;;;;;;;;;;5057415;28;20571;-77
2023/02/23 14:38:32;;;;;;;30.05;18.20;;;;;;;;;;5057080;28;20211;-77
2023/02/23 14:41:00;;;;;;;30.00;17.02;;;;;;;;;;5057857;28;20308;-77
2023/02/23 14:43:32;;;;;;;34.58;20.52;;;;;;;;;;5057566;28;20276;-77
2023/02/23 14:45:58;;;;;;;31.35;18.13;;;;;;;;;;5057662;28;20633;-77
2023/02/23 14:48:24;;;;;;;28.35;17.13;;;;;;;;;;5057066;28;20186;-78
2023/02/23 14:50:51;;;;;;;34.17;18.70;;;;;;;;;;5057520;28;20236;-77
2023/02/23 14:53:21;;;;;;;28.90;18.02;;;;;;;;;;5057136;28;20186;-77
2023/02/23 14:55:48;;;;;;;29.30;17.33;;;;;;;;;;5057693;28;20173;-78
2023/02/23 14:58:26;;;;;;;30.63;18.80;;;;;;;;;;5057085;28;20232;-77
2023/02/23 15:00:52;;;;;;;28.55;16.42;;;;;;;;;;5058449;28;20591;-77
2023/02/23 15:03:18;;;;;;;31.83;18.27;;;;;;;;;;5058977;28;20189;-77
2023/02/23 15:05:46;;;;;;;30.23;17.63;;;;;;;;;;5056904;28;20182;-77
2023/02/23 15:08:16;;;;;;;30.75;18.75;;;;;;;;;;5057641;28;20427;-77
2023/02/23 15:10:50;;;;;;;32.08;18.00;;;;;;;;;;5056836;28;20226;-77
2023/02/23 15:13:16;;;;;;;36.20;19.30;;;;;;;;;;5056680;28;20229;-77
2023/02/23 15:15:44;;;;;;;40.50;18.87;;;;;;;;;;5056548;28;20169;-77
2023/02/23 15:18:13;;;;;;;35.55;20.08;;;;;;;;;;5056298;28;20466;-77
2023/02/23 15:20:42;;;;;;;35.33;20.60;;;;;;;;;;5057144;28;20188;-77
2023/02/23 15:23:12;;;;;;;34.38;19.17;;;;;;;;;;5056756;28;20567;-77
2023/02/23 15:25:40;;;;;;;39.65;21.65;;;;;;;;;;5056574;28;20264;-77
2023/02/23 15:28:22;;;;;;;35.33;19.90;;;;;;;;;;5056273;28;20219;-77
2023/02/23 15:30:49;;;;;;;39.53;19.88;;;;;;;;;;5056210;28;20165;-77
2023/02/23 15:33:22;;;;;;;37.67;20.67;;;;;;;;;;5055706;28;20202;-77
2023/02/23 15:35:51;;;;;;;35.22;19.20;;;;;;;;;;5056098;28;20597;-77
2023/02/23 15:38:28;;;;;;;34.95;20.23;;;;;;;;;;5056428;28;20205;-77
2023/02/23 15:40:57;;;;;;;34.47;19.02;;;;;;;;;;5055132;28;20715;-77
2023/02/23 15:43:23;;;;;;;32.72;19.40;;;;;;;;;;5056196;28;20199;-77